• Join FlightAware (Why Join?)
  • Login
  • US Flag 
03:18AM EDT


 

Airport Tracker/Info


-or-


 

Live Flight TrackerFlight Track Log ✈ SWA3943 ✈ 23-Apr-2013 ✈ KCMH - KBWI

Flight Track Log - Related Links

Times and Time Zones

All times are in EDT time to prevent confusion due to time zone crossing. See the SWA3943 flight status page for this flight to view local times or setup timezone preferences in your user account.

Time Position Orientation Groundspeed Altitude Reporting Facility
EDT Latitude Longitude Course Direction KTS MPH feet Rate Location/Type
08:22PM 40.0000 -82.9481 281° West 163 188 2,300  Level Indianapolis Center
08:23PM 39.9822 -82.9908 242° Southwest 217 250 3,900 2,280 Climbing Indianapolis Center
08:24PM 39.9433 -82.9533 144° Southeast 241 277 6,500 2,700 Climbing Indianapolis Center
08:25PM 39.9472 -82.8450 87° East 293 337 9,500 2,760 Climbing Indianapolis Center
08:26PM 39.9469 -82.7211 90° East 335 386 12,300 2,700 Climbing Indianapolis Center
08:27PM 39.9425 -82.5817 92° East 377 434 15,100 2,640 Climbing Indianapolis Center
08:28PM 39.9439 -82.4325 89° East 404 465 17,800 2,580 Climbing Indianapolis Center
08:29PM 39.9428 -82.2767 90° East 423 487 20,500 2,460 Climbing Indianapolis Center
08:30PM 39.9419 -82.1186 90° East 432 497 22,900 2,220 Climbing Indianapolis Center
08:31PM 39.9406 -81.9256 90° East 451 519 25,200 1,980 Climbing Indianapolis Center
08:32PM 39.9508 -81.7556 85° East 465 535 27,000 1,560 Climbing Indianapolis Center
08:33PM 39.9597 -81.5794 86° East 482 555 28,400 1,320 Climbing Indianapolis Center
08:34PM 39.9397 -81.4075 99° East 497 572 29,800 1,260 Climbing Indianapolis Center
08:35PM 39.9125 -81.2253 101° East 509 586 31,000 1,020 Climbing Indianapolis Center
08:37PM 39.8883 -81.0475 100° East 501 577 32,000 900 Climbing Indianapolis Center
08:38PM 39.8636 -80.8733 100° East 490 564 32,900 420 Climbing Indianapolis Center
08:39PM 39.8336 -80.6372 99° East 493 567 33,000 -180 Climbing Cleveland Center
08:40PM 39.8067 -80.4614 101° East 488 562 32,600 -720 Descending Cleveland Center
08:41PM 39.7792 -80.2886 102° East 488 562 31,600 -840 Descending Cleveland Center
08:42PM 39.7536 -80.1133 101° East 488 562 31,000 -300 Descending Cleveland Center
08:43PM 39.7256 -79.9408 102° East 488 562 31,000  Level Cleveland Center
08:44PM 39.7014 -79.7628 100° East 488 562 31,000  Level Cleveland Center
08:45PM 39.6731 -79.5933 102° East 488 562 31,000  Level Cleveland Center
08:45PM 39.6681 -79.5356 96° East 484 557 31,000  Level Washington Center
08:46PM 39.6381 -79.3614 103° East 491 565 31,000 -600 Level Washington Center
08:47PM 39.6103 -79.1822 101° East 491 565 29,900 -1,620 Descending Washington Center
08:48PM 39.5836 -79.0247 102° East 491 565 27,800 -2,280 Descending Washington Center
08:49PM 39.5569 -78.8592 102° East 480 552 25,400 -1,500 Descending Washington Center
08:50PM 39.5300 -78.6992 102° East 470 541 24,900 -1,320 Descending Washington Center
08:51PM 39.5025 -78.5394 103° East 457 526 22,800 -2,460 Descending Washington Center
08:52PM 39.4769 -78.3958 103° East 432 497 20,000 -3,120 Descending Washington Center
08:53PM 39.4531 -78.2469 102° East 421 484 16,600 -2,520 Descending Washington Center
08:54PM 39.4356 -78.1014 99° East 416 479 15,000 -840 Descending Washington Center
08:55PM 39.4383 -77.9564 89° East 410 472 15,000  Level Washington Center
08:56PM 39.4392 -77.8006 90° East 405 466 15,000 -600 Level Washington Center
08:57PM 39.4417 -77.6608 89° East 399 459 13,900 -1,320 Descending Washington Center
08:58PM 39.4417 -77.5344 90° East 376 433 12,400 -1,500 Descending Washington Center
08:59PM 39.4436 -77.4217 89° East 340 391 11,000 -720 Descending Washington Center
09:00PM 39.4514 -77.3089 85° East 319 367 11,000 -360 Level Washington Center
09:01PM 39.4656 -77.1964 81° East 311 358 10,300 -840 Descending Washington Center
09:02PM 39.4833 -77.0833 78° East 317 365 9,300 -1,020 Descending Potomac TRACON
09:03PM 39.4833 -76.9833 90° East 307 353 8,300 -1,080 Descending Potomac TRACON
09:04PM 39.4333 -76.9000 128° Southeast 292 336 7,200 -1,200 Descending Potomac TRACON
09:05PM 39.3833 -76.8167 128° Southeast 283 326 6,000 -1,440 Descending Potomac TRACON
09:06PM 39.3167 -76.7833 159° South 278 320 4,400 -1,560 Descending Potomac TRACON
09:07PM 39.2667 -76.8500 226° Southwest 259 298 2,900 -1,080 Descending Potomac TRACON
09:08PM 39.2167 -76.8000 142° Southeast 225 259 2,300 -660 Descending Potomac TRACON
09:09PM 39.1833 -76.7500 131° Southeast 142 163 1,600 -900 Descending Potomac TRACON
09:10PM 39.1833 -76.7167 90° East 119 137 600 -1,020 Descending Potomac TRACON
09:12PM 39.1667 -76.6667 142° Southeast  Level FlightAware Approximate
09:19PM 39.1754 -76.6683 142° Southeast  Level Estimated
09:20PM 39.1754 -76.6683 142° Southeast  Level Estimated
09:21PM 39.1754 -76.6683 142° Southeast  Level Estimated
09:22PM 39.1754 -76.6683 142° Southeast  Level Estimated